sensor_id;sensor_type;location;lat;lon;timestamp;pressure;altitude;pressure_sealevel;temperature;humidity
77118;BME280;66072;50.238;19.228;2024-01-11T00:01:51;99708.41;;;-13.89;86.31
77118;BME280;66072;50.238;19.228;2024-01-11T00:04:18;99698.16;;;-13.99;85.85
77118;BME280;66072;50.238;19.228;2024-01-11T00:06:46;99693.29;;;-14.13;85.33
77118;BME280;66072;50.238;19.228;2024-01-11T00:09:14;99694.18;;;-14.23;85.32
77118;BME280;66072;50.238;19.228;2024-01-11T00:11:41;99688.33;;;-14.32;85.35
77118;BME280;66072;50.238;19.228;2024-01-11T00:14:09;99684.12;;;-14.38;85.63
77118;BME280;66072;50.238;19.228;2024-01-11T00:16:37;99683.69;;;-14.44;85.66
77118;BME280;66072;50.238;19.228;2024-01-11T00:19:04;99689.30;;;-14.48;85.74
77118;BME280;66072;50.238;19.228;2024-01-11T00:21:32;99690.44;;;-14.51;86.02
77118;BME280;66072;50.238;19.228;2024-01-11T00:24:00;99688.38;;;-14.55;85.90
77118;BME280;66072;50.238;19.228;2024-01-11T00:26:28;99685.06;;;-14.59;85.70
77118;BME280;66072;50.238;19.228;2024-01-11T00:28:56;99680.12;;;-14.65;85.63
77118;BME280;66072;50.238;19.228;2024-01-11T00:31:23;99673.16;;;-14.70;85.53
77118;BME280;66072;50.238;19.228;2024-01-11T00:33:51;99666.36;;;-14.75;85.53
77118;BME280;66072;50.238;19.228;2024-01-11T00:36:19;99666.35;;;-14.78;85.70
77118;BME280;66072;50.238;19.228;2024-01-11T00:38:47;99665.15;;;-14.79;86.12
77118;BME280;66072;50.238;19.228;2024-01-11T00:41:14;99660.40;;;-14.78;86.34
77118;BME280;66072;50.238;19.228;2024-01-11T00:43:42;99653.35;;;-14.78;86.22
77118;BME280;66072;50.238;19.228;2024-01-11T00:46:10;99655.39;;;-14.77;86.50
77118;BME280;66072;50.238;19.228;2024-01-11T00:48:38;99654.13;;;-14.77;86.53
77118;BME280;66072;50.238;19.228;2024-01-11T00:51:05;99650.22;;;-14.76;86.52
77118;BME280;66072;50.238;19.228;2024-01-11T00:53:33;99643.69;;;-14.73;86.82
77118;BME280;66072;50.238;19.228;2024-01-11T00:56:01;99642.15;;;-14.65;87.62
77118;BME280;66072;50.238;19.228;2024-01-11T00:58:30;99644.71;;;-14.61;87.72
77118;BME280;66072;50.238;19.228;2024-01-11T01:00:57;99645.56;;;-14.58;87.47
77118;BME280;66072;50.238;19.228;2024-01-11T01:03:25;99640.77;;;-14.56;87.60
77118;BME280;66072;50.238;19.228;2024-01-11T01:05:53;99643.98;;;-14.57;87.12
77118;BME280;66072;50.238;19.228;2024-01-11T01:08:21;99643.83;;;-14.60;86.94
77118;BME280;66072;50.238;19.228;2024-01-11T01:10:48;99642.11;;;-14.58;87.47
77118;BME280;66072;50.238;19.228;2024-01-11T01:13:16;99644.52;;;-14.55;87.71
77118;BME280;66072;50.238;19.228;2024-01-11T01:15:44;99646.90;;;-14.54;87.61
77118;BME280;66072;50.238;19.228;2024-01-11T01:18:12;99644.54;;;-14.52;87.56
77118;BME280;66072;50.238;19.228;2024-01-11T01:20:40;99643.05;;;-14.50;87.68
77118;BME280;66072;50.238;19.228;2024-01-11T01:23:08;99646.80;;;-14.46;87.81
77118;BME280;66072;50.238;19.228;2024-01-11T01:25:35;99643.30;;;-14.44;87.50
77118;BME280;66072;50.238;19.228;2024-01-11T01:28:03;99648.33;;;-14.42;87.42
77118;BME280;66072;50.238;19.228;2024-01-11T01:30:31;99646.80;;;-14.41;87.38
77118;BME280;66072;50.238;19.228;2024-01-11T01:32:59;99642.52;;;-14.39;87.64
77118;BME280;66072;50.238;19.228;2024-01-11T01:35:27;99639.59;;;-14.38;87.39
77118;BME280;66072;50.238;19.228;2024-01-11T01:37:55;99641.69;;;-14.41;87.01
77118;BME280;66072;50.238;19.228;2024-01-11T01:40:23;99639.98;;;-14.47;86.45
77118;BME280;66072;50.238;19.228;2024-01-11T01:42:57;99641.21;;;-14.53;86.16
77118;BME280;66072;50.238;19.228;2024-01-11T01:45:25;99639.84;;;-14.58;85.95
77118;BME280;66072;50.238;19.228;2024-01-11T01:47:53;99633.58;;;-14.63;85.84
77118;BME280;66072;50.238;19.228;2024-01-11T01:50:21;99625.77;;;-14.67;85.83
77118;BME280;66072;50.238;19.228;2024-01-11T01:52:49;99624.13;;;-14.69;86.45
77118;BME280;66072;50.238;19.228;2024-01-11T01:55:17;99632.69;;;-14.69;86.60
77118;BME280;66072;50.238;19.228;2024-01-11T01:57:46;99632.10;;;-14.70;86.51
77118;BME280;66072;50.238;19.228;2024-01-11T02:00:14;99625.84;;;-14.73;86.32
77118;BME280;66072;50.238;19.228;2024-01-11T02:02:46;99618.84;;;-14.74;86.52
77118;BME280;66072;50.238;19.228;2024-01-11T02:05:17;99613.93;;;-14.76;86.46
77118;BME280;66072;50.238;19.228;2024-01-11T02:07:45;99614.89;;;-14.77;86.62
77118;BME280;66072;50.238;19.228;2024-01-11T02:10:13;99611.96;;;-14.74;87.07
77118;BME280;66072;50.238;19.228;2024-01-11T02:12:41;99608.91;;;-14.71;87.20
77118;BME280;66072;50.238;19.228;2024-01-11T02:15:09;99603.81;;;-14.71;87.02
77118;BME280;66072;50.238;19.228;2024-01-11T02:17:39;99607.80;;;-14.70;87.14
77118;BME280;66072;50.238;19.228;2024-01-11T02:20:08;99605.85;;;-14.70;87.25
77118;BME280;66072;50.238;19.228;2024-01-11T02:22:40;99607.98;;;-14.70;87.10
77118;BME280;66072;50.238;19.228;2024-01-11T02:25:08;99603.16;;;-14.71;87.23
77118;BME280;66072;50.238;19.228;2024-01-11T02:27:49;99593.73;;;-14.70;87.42
77118;BME280;66072;50.238;19.228;2024-01-11T02:30:17;99591.44;;;-14.67;87.58
77118;BME280;66072;50.238;19.228;2024-01-11T02:32:49;99594.48;;;-14.64;87.50
77118;BME280;66072;50.238;19.228;2024-01-11T02:35:18;99599.54;;;-14.57;87.44
77118;BME280;66072;50.238;19.228;2024-01-11T02:37:47;99596.23;;;-14.50;87.68
77118;BME280;66072;50.238;19.228;2024-01-11T02:40:15;99595.54;;;-14.41;88.12
77118;BME280;66072;50.238;19.228;2024-01-11T02:42:43;99607.30;;;-14.35;88.03
77118;BME280;66072;50.238;19.228;2024-01-11T02:45:12;99607.91;;;-14.28;88.14
77118;BME280;66072;50.238;19.228;2024-01-11T02:47:40;99600.00;;;-14.19;88.53
77118;BME280;66072;50.238;19.228;2024-01-11T02:50:08;99592.81;;;-14.12;88.32
77118;BME280;66072;50.238;19.228;2024-01-11T02:52:36;99597.84;;;-14.05;88.08
77118;BME280;66072;50.238;19.228;2024-01-11T02:55:04;99602.75;;;-14.00;88.22
77118;BME280;66072;50.238;19.228;2024-01-11T02:57:32;99600.92;;;-13.96;88.06
77118;BME280;66072;50.238;19.228;2024-01-11T03:00:00;99595.88;;;-13.93;87.91
77118;BME280;66072;50.238;19.228;2024-01-11T03:02:27;99596.22;;;-13.95;87.46
77118;BME280;66072;50.238;19.228;2024-01-11T03:04:55;99594.47;;;-13.97;87.28
77118;BME280;66072;50.238;19.228;2024-01-11T03:07:23;99590.67;;;-13.97;87.47
77118;BME280;66072;50.238;19.228;2024-01-11T03:09:50;99585.98;;;-13.96;87.46
77118;BME280;66072;50.238;19.228;2024-01-11T03:12:18;99581.46;;;-13.94;87.38
77118;BME280;66072;50.238;19.228;2024-01-11T03:14:46;99577.54;;;-13.94;87.34
77118;BME280;66072;50.238;19.228;2024-01-11T03:17:14;99572.98;;;-13.96;87.15
77118;BME280;66072;50.238;19.228;2024-01-11T03:19:41;99563.00;;;-14.00;86.83
77118;BME280;66072;50.238;19.228;2024-01-11T03:22:11;99564.36;;;-14.02;87.02
77118;BME280;66072;50.238;19.228;2024-01-11T03:24:39;99561.35;;;-14.03;87.01
77118;BME280;66072;50.238;19.228;2024-01-11T03:27:06;99564.06;;;-14.04;87.01
77118;BME280;66072;50.238;19.228;2024-01-11T03:29:34;99570.31;;;-14.04;87.02
77118;BME280;66072;50.238;19.228;2024-01-11T03:32:02;99572.09;;;-14.01;87.45
77118;BME280;66072;50.238;19.228;2024-01-11T03:34:30;99560.71;;;-13.98;88.00
77118;BME280;66072;50.238;19.228;2024-01-11T03:36:58;99555.80;;;-13.95;88.05
77118;BME280;66072;50.238;19.228;2024-01-11T03:39:26;99549.17;;;-13.93;87.87
77118;BME280;66072;50.238;19.228;2024-01-11T03:41:53;99545.71;;;-13.93;87.82
77118;BME280;66072;50.238;19.228;2024-01-11T03:44:22;99544.89;;;-13.91;87.85
77118;BME280;66072;50.238;19.228;2024-01-11T03:46:50;99544.29;;;-13.87;87.85
77118;BME280;66072;50.238;19.228;2024-01-11T03:49:17;99549.75;;;-13.82;87.88
77118;BME280;66072;50.238;19.228;2024-01-11T03:51:45;99562.09;;;-13.77;87.95
77118;BME280;66072;50.238;19.228;2024-01-11T03:54:13;99559.40;;;-13.68;88.49
77118;BME280;66072;50.238;19.228;2024-01-11T03:56:41;99548.41;;;-13.61;88.65
77118;BME280;66072;50.238;19.228;2024-01-11T03:59:10;99541.77;;;-13.56;88.51
77118;BME280;66072;50.238;19.228;2024-01-11T04:01:40;99548.83;;;-13.51;88.70
77118;BME280;66072;50.238;19.228;2024-01-11T04:04:07;99550.41;;;-13.47;88.59
77118;BME280;66072;50.238;19.228;2024-01-11T04:06:35;99547.51;;;-13.44;88.38
77118;BME280;66072;50.238;19.228;2024-01-11T04:09:03;99551.02;;;-13.43;87.88
77118;BME280;66072;50.238;19.228;2024-01-11T04:11:31;99550.06;;;-13.45;87.42
77118;BME280;66072;50.238;19.228;2024-01-11T04:13:58;99547.48;;;-13.47;87.33
77118;BME280;66072;50.238;19.228;2024-01-11T04:16:26;99537.73;;;-13.47;87.45
77118;BME280;66072;50.238;19.228;2024-01-11T04:18:54;99531.50;;;-13.50;87.42
77118;BME280;66072;50.238;19.228;2024-01-11T04:21:23;99535.65;;;-13.47;88.10
77118;BME280;66072;50.238;19.228;2024-01-11T04:23:51;99548.69;;;-13.41;88.28
77118;BME280;66072;50.238;19.228;2024-01-11T04:26:18;99547.86;;;-13.36;88.46
77118;BME280;66072;50.238;19.228;2024-01-11T04:28:47;99541.59;;;-13.34;88.19
77118;BME280;66072;50.238;19.228;2024-01-11T04:31:15;99539.42;;;-13.34;87.92
77118;BME280;66072;50.238;19.228;2024-01-11T04:33:44;99539.75;;;-13.37;87.53
77118;BME280;66072;50.238;19.228;2024-01-11T04:36:12;99546.11;;;-13.38;87.57
77118;BME280;66072;50.238;19.228;2024-01-11T04:38:40;99544.11;;;-13.38;87.79
77118;BME280;66072;50.238;19.228;2024-01-11T04:41:11;99535.40;;;-13.38;87.81
77118;BME280;66072;50.238;19.228;2024-01-11T04:43:40;99527.39;;;-13.37;88.19
77118;BME280;66072;50.238;19.228;2024-01-11T04:46:22;99531.70;;;-13.24;89.66
77118;BME280;66072;50.238;19.228;2024-01-11T04:48:50;99541.16;;;-13.07;90.24
77118;BME280;66072;50.238;19.228;2024-01-11T04:51:18;99537.05;;;-12.93;90.29
77118;BME280;66072;50.238;19.228;2024-01-11T04:53:46;99528.62;;;-12.81;90.24
77118;BME280;66072;50.238;19.228;2024-01-11T04:56:15;99532.29;;;-12.64;90.62
77118;BME280;66072;50.238;19.228;2024-01-11T04:58:44;99536.80;;;-12.50;90.39
77118;BME280;66072;50.238;19.228;2024-01-11T05:01:16;99533.92;;;-12.38;90.36
77118;BME280;66072;50.238;19.228;2024-01-11T05:03:45;99527.31;;;-12.25;90.64
77118;BME280;66072;50.238;19.228;2024-01-11T05:06:20;99522.36;;;-12.11;90.54
77118;BME280;66072;50.238;19.228;2024-01-11T05:08:51;99505.76;;;-11.99;90.41
77118;BME280;66072;50.238;19.228;2024-01-11T05:11:21;99505.09;;;-11.90;90.21
77118;BME280;66072;50.238;19.228;2024-01-11T05:13:50;99503.83;;;-11.84;90.04
77118;BME280;66072;50.238;19.228;2024-01-11T05:16:21;99499.11;;;-11.80;89.97
77118;BME280;66072;50.238;19.228;2024-01-11T05:18:53;99488.74;;;-11.73;89.96
77118;BME280;66072;50.238;19.228;2024-01-11T05:21:22;99486.70;;;-11.66;90.09
77118;BME280;66072;50.238;19.228;2024-01-11T05:23:50;99483.83;;;-11.58;90.35
77118;BME280;66072;50.238;19.228;2024-01-11T05:26:18;99483.39;;;-11.51;90.21
77118;BME280;66072;50.238;19.228;2024-01-11T05:28:46;99484.44;;;-11.45;90.01
77118;BME280;66072;50.238;19.228;2024-01-11T05:31:15;99495.52;;;-11.39;89.87
77118;BME280;66072;50.238;19.228;2024-01-11T05:33:43;99499.70;;;-11.34;89.84
77118;BME280;66072;50.238;19.228;2024-01-11T05:36:11;99504.21;;;-11.33;89.33
77118;BME280;66072;50.238;19.228;2024-01-11T05:38:39;99511.05;;;-11.32;89.23
77118;BME280;66072;50.238;19.228;2024-01-11T05:41:07;99513.04;;;-11.32;89.19
77118;BME280;66072;50.238;19.228;2024-01-11T05:43:37;99512.54;;;-11.32;89.13
77118;BME280;66072;50.238;19.228;2024-01-11T05:46:05;99512.73;;;-11.31;89.07
77118;BME280;66072;50.238;19.228;2024-01-11T05:48:33;99497.15;;;-11.29;89.23
77118;BME280;66072;50.238;19.228;2024-01-11T05:51:00;99492.01;;;-11.28;89.16
77118;BME280;66072;50.238;19.228;2024-01-11T05:53:28;99485.49;;;-11.26;89.23
77118;BME280;66072;50.238;19.228;2024-01-11T05:55:56;99476.33;;;-11.24;89.26
77118;BME280;66072;50.238;19.228;2024-01-11T05:58:23;99474.93;;;-11.26;88.97
77118;BME280;66072;50.238;19.228;2024-01-11T06:00:51;99480.48;;;-11.24;89.25
77118;BME280;66072;50.238;19.228;2024-01-11T06:03:19;99492.76;;;-11.20;89.24
77118;BME280;66072;50.238;19.228;2024-01-11T06:05:46;99490.11;;;-11.20;89.04
77118;BME280;66072;50.238;19.228;2024-01-11T06:08:14;99495.06;;;-11.20;89.00
77118;BME280;66072;50.238;19.228;2024-01-11T06:10:42;99501.80;;;-11.21;88.78
77118;BME280;66072;50.238;19.228;2024-01-11T06:13:10;99508.74;;;-11.23;88.39
77118;BME280;66072;50.238;19.228;2024-01-11T06:15:37;99497.73;;;-11.28;88.13
77118;BME280;66072;50.238;19.228;2024-01-11T06:18:05;99486.89;;;-11.33;88.19
77118;BME280;66072;50.238;19.228;2024-01-11T06:20:33;99483.60;;;-11.39;88.08
77118;BME280;66072;50.238;19.228;2024-01-11T06:23:01;99485.89;;;-11.46;87.83
77118;BME280;66072;50.238;19.228;2024-01-11T06:25:28;99481.65;;;-11.50;87.87
77118;BME280;66072;50.238;19.228;2024-01-11T06:27:56;99477.31;;;-11.54;87.86
77118;BME280;66072;50.238;19.228;2024-01-11T06:30:24;99468.96;;;-11.59;87.67
77118;BME280;66072;50.238;19.228;2024-01-11T06:32:51;99465.11;;;-11.63;87.76
77118;BME280;66072;50.238;19.228;2024-01-11T06:35:19;99466.71;;;-11.63;88.10
77118;BME280;66072;50.238;19.228;2024-01-11T06:37:47;99454.89;;;-11.60;88.41
77118;BME280;66072;50.238;19.228;2024-01-11T06:40:15;99452.38;;;-11.51;89.10
77118;BME280;66072;50.238;19.228;2024-01-11T06:42:42;99431.55;;;-11.43;89.19
77118;BME280;66072;50.238;19.228;2024-01-11T06:45:10;99415.63;;;-11.35;89.25
77118;BME280;66072;50.238;19.228;2024-01-11T06:47:38;99396.80;;;-11.30;89.22
77118;BME280;66072;50.238;19.228;2024-01-11T06:50:06;99395.55;;;-11.23;89.42
77118;BME280;66072;50.238;19.228;2024-01-11T06:52:34;99402.84;;;-11.13;89.49
77118;BME280;66072;50.238;19.228;2024-01-11T06:55:02;99396.67;;;-11.01;89.56
77118;BME280;66072;50.238;19.228;2024-01-11T06:57:29;99393.43;;;-10.91;89.46
77118;BME280;66072;50.238;19.228;2024-01-11T06:59:57;99395.69;;;-10.83;89.06
77118;BME280;66072;50.238;19.228;2024-01-11T07:02:25;99404.66;;;-10.75;88.86
77118;BME280;66072;50.238;19.228;2024-01-11T07:04:52;99407.30;;;-10.69;88.75
77118;BME280;66072;50.238;19.228;2024-01-11T07:07:20;99404.81;;;-10.64;88.69
77118;BME280;66072;50.238;19.228;2024-01-11T07:09:48;99402.67;;;-10.53;88.58
77118;BME280;66072;50.238;19.228;2024-01-11T07:12:15;99404.70;;;-10.43;88.57
77118;BME280;66072;50.238;19.228;2024-01-11T07:14:43;99390.97;;;-10.34;88.62
77118;BME280;66072;50.238;19.228;2024-01-11T07:17:11;99381.27;;;-10.23;88.69
77118;BME280;66072;50.238;19.228;2024-01-11T07:19:38;99368.31;;;-10.10;88.63
77118;BME280;66072;50.238;19.228;2024-01-11T07:22:06;99373.80;;;-9.96;88.50
77118;BME280;66072;50.238;19.228;2024-01-11T07:24:34;99382.93;;;-9.82;88.37
77118;BME280;66072;50.238;19.228;2024-01-11T07:27:02;99384.29;;;-9.67;88.26
77118;BME280;66072;50.238;19.228;2024-01-11T07:29:30;99386.19;;;-9.52;88.24
77118;BME280;66072;50.238;19.228;2024-01-11T07:31:58;99380.73;;;-9.31;88.17
77118;BME280;66072;50.238;19.228;2024-01-11T07:34:26;99385.19;;;-9.06;88.06
77118;BME280;66072;50.238;19.228;2024-01-11T07:36:54;99395.47;;;-8.80;87.92
77118;BME280;66072;50.238;19.228;2024-01-11T07:39:22;99414.59;;;-8.53;87.51
77118;BME280;66072;50.238;19.228;2024-01-11T07:41:50;99431.01;;;-8.26;86.86
77118;BME280;66072;50.238;19.228;2024-01-11T07:44:18;99429.73;;;-8.02;86.12
77118;BME280;66072;50.238;19.228;2024-01-11T07:46:46;99428.02;;;-7.80;85.93
77118;BME280;66072;50.238;19.228;2024-01-11T07:49:21;99420.48;;;-7.53;85.40
77118;BME280;66072;50.238;19.228;2024-01-11T07:51:49;99406.55;;;-7.23;85.44
77118;BME280;66072;50.238;19.228;2024-01-11T07:54:17;99401.85;;;-6.94;85.49
77118;BME280;66072;50.238;19.228;2024-01-11T07:56:44;99390.50;;;-6.69;84.93
77118;BME280;66072;50.238;19.228;2024-01-11T07:59:12;99389.41;;;-6.48;84.04
77118;BME280;66072;50.238;19.228;2024-01-11T08:01:40;99374.37;;;-6.31;83.10
77118;BME280;66072;50.238;19.228;2024-01-11T08:04:08;99365.75;;;-6.16;82.25
77118;BME280;66072;50.238;19.228;2024-01-11T08:06:36;99363.90;;;-6.02;81.72
77118;BME280;66072;50.238;19.228;2024-01-11T08:09:03;99354.85;;;-5.88;81.79
77118;BME280;66072;50.238;19.228;2024-01-11T08:11:31;99342.98;;;-5.79;81.41
77118;BME280;66072;50.238;19.228;2024-01-11T08:14:02;99341.27;;;-5.70;81.08
77118;BME280;66072;50.238;19.228;2024-01-11T08:16:29;99345.86;;;-5.62;81.05
77118;BME280;66072;50.238;19.228;2024-01-11T08:18:57;99347.45;;;-5.49;80.91
77118;BME280;66072;50.238;19.228;2024-01-11T08:21:25;99345.96;;;-5.32;80.41
77118;BME280;66072;50.238;19.228;2024-01-11T08:23:53;99352.05;;;-5.19;79.68
77118;BME280;66072;50.238;19.228;2024-01-11T08:26:20;99348.04;;;-5.08;79.16
77118;BME280;66072;50.238;19.228;2024-01-11T08:28:48;99342.07;;;-4.96;78.94
77118;BME280;66072;50.238;19.228;2024-01-11T08:31:16;99337.39;;;-4.84;79.03
77118;BME280;66072;50.238;19.228;2024-01-11T08:33:43;99329.55;;;-4.73;78.54
77118;BME280;66072;50.238;19.228;2024-01-11T08:36:11;99329.14;;;-4.63;78.60
77118;BME280;66072;50.238;19.228;2024-01-11T08:38:39;99327.52;;;-4.55;77.42
77118;BME280;66072;50.238;19.228;2024-01-11T08:41:07;99326.23;;;-4.47;77.67
77118;BME280;66072;50.238;19.228;2024-01-11T08:43:34;99330.57;;;-4.42;77.33
77118;BME280;66072;50.238;19.228;2024-01-11T08:46:02;99329.57;;;-4.36;77.33
77118;BME280;66072;50.238;19.228;2024-01-11T08:48:30;99329.31;;;-4.33;76.75
77118;BME280;66072;50.238;19.228;2024-01-11T08:50:58;99334.02;;;-4.31;76.35
77118;BME280;66072;50.238;19.228;2024-01-11T08:53:26;99342.30;;;-4.28;76.52
77118;BME280;66072;50.238;19.228;2024-01-11T08:55:54;99358.46;;;-4.23;76.02
77118;BME280;66072;50.238;19.228;2024-01-11T08:58:21;99364.06;;;-4.19;74.83
77118;BME280;66072;50.238;19.228;2024-01-11T09:00:49;99362.57;;;-4.19;74.23
77118;BME280;66072;50.238;19.228;2024-01-11T09:03:16;99364.89;;;-4.14;75.04
77118;BME280;66072;50.238;19.228;2024-01-11T09:05:45;99362.88;;;-4.01;75.25
77118;BME280;66072;50.238;19.228;2024-01-11T09:08:13;99361.44;;;-3.86;74.57
77118;BME280;66072;50.238;19.228;2024-01-11T09:10:41;99368.27;;;-3.67;74.10
77118;BME280;66072;50.238;19.228;2024-01-11T09:13:09;99359.08;;;-3.46;74.24
77118;BME280;66072;50.238;19.228;2024-01-11T09:15:38;99354.58;;;-3.16;73.54
77118;BME280;66072;50.238;19.228;2024-01-11T09:18:06;99350.58;;;-2.93;72.08
77118;BME280;66072;50.238;19.228;2024-01-11T09:20:35;99356.79;;;-2.77;71.58
77118;BME280;66072;50.238;19.228;2024-01-11T09:23:03;99365.02;;;-2.67;69.62
77118;BME280;66072;50.238;19.228;2024-01-11T09:25:31;99365.04;;;-2.58;69.94
77118;BME280;66072;50.238;19.228;2024-01-11T09:27:59;99360.78;;;-2.45;70.52
77118;BME280;66072;50.238;19.228;2024-01-11T09:30:27;99361.23;;;-2.30;69.70
77118;BME280;66072;50.238;19.228;2024-01-11T09:32:55;99361.67;;;-2.16;65.76
77118;BME280;66072;50.238;19.228;2024-01-11T09:35:23;99348.95;;;-1.98;65.71
77118;BME280;66072;50.238;19.228;2024-01-11T09:37:51;99341.93;;;-1.86;62.11
77118;BME280;66072;50.238;19.228;2024-01-11T09:40:19;99341.01;;;-1.82;60.84
77118;BME280;66072;50.238;19.228;2024-01-11T09:42:47;99345.23;;;-1.80;59.07
77118;BME280;66072;50.238;19.228;2024-01-11T09:45:16;99340.48;;;-1.73;59.88
77118;BME280;66072;50.238;19.228;2024-01-11T09:47:45;99337.43;;;-1.75;58.31
77118;BME280;66072;50.238;19.228;2024-01-11T09:50:14;99325.71;;;-1.74;59.71
77118;BME280;66072;50.238;19.228;2024-01-11T09:52:47;99317.20;;;-1.62;58.63
77118;BME280;66072;50.238;19.228;2024-01-11T09:55:16;99314.09;;;-1.57;57.58
77118;BME280;66072;50.238;19.228;2024-01-11T09:57:45;99308.11;;;-1.52;57.12
77118;BME280;66072;50.238;19.228;2024-01-11T10:00:16;99307.89;;;-1.46;57.39
77118;BME280;66072;50.238;19.228;2024-01-11T10:02:45;99306.05;;;-1.45;57.07
77118;BME280;66072;50.238;19.228;2024-01-11T10:05:13;99306.00;;;-1.48;56.70
77118;BME280;66072;50.238;19.228;2024-01-11T10:07:41;99295.20;;;-1.53;56.81
77118;BME280;66072;50.238;19.228;2024-01-11T10:10:09;99293.69;;;-1.53;57.48
77118;BME280;66072;50.238;19.228;2024-01-11T10:12:37;99279.62;;;-1.52;56.99
77118;BME280;66072;50.238;19.228;2024-01-11T10:15:06;99279.48;;;-1.48;57.34
77118;BME280;66072;50.238;19.228;2024-01-11T10:17:40;99284.13;;;-1.52;55.96
77118;BME280;66072;50.238;19.228;2024-01-11T10:20:09;99283.16;;;-1.48;56.61
77118;BME280;66072;50.238;19.228;2024-01-11T10:22:37;99279.71;;;-1.45;56.27
77118;BME280;66072;50.238;19.228;2024-01-11T10:25:12;99270.38;;;-1.40;56.68
77118;BME280;66072;50.238;19.228;2024-01-11T10:27:40;99268.62;;;-1.35;56.37
77118;BME280;66072;50.238;19.228;2024-01-11T10:30:12;99270.41;;;-1.25;56.92
77118;BME280;66072;50.238;19.228;2024-01-11T10:32:41;99261.96;;;-1.18;57.08
77118;BME280;66072;50.238;19.228;2024-01-11T10:35:09;99259.15;;;-1.16;56.16
77118;BME280;66072;50.238;19.228;2024-01-11T10:37:37;99256.30;;;-1.16;55.55
77118;BME280;66072;50.238;19.228;2024-01-11T10:40:06;99252.49;;;-1.11;56.06
77118;BME280;66072;50.238;19.228;2024-01-11T10:42:35;99255.04;;;-1.09;55.78
77118;BME280;66072;50.238;19.228;2024-01-11T10:45:10;99257.42;;;-1.05;56.26
77118;BME280;66072;50.238;19.228;2024-01-11T10:47:38;99260.30;;;-1.03;54.75
77118;BME280;66072;50.238;19.228;2024-01-11T10:50:07;99251.60;;;-1.01;54.24
77118;BME280;66072;50.238;19.228;2024-01-11T10:52:43;99253.48;;;-0.98;54.39
77118;BME280;66072;50.238;19.228;2024-01-11T10:55:16;99248.05;;;-0.90;54.19
77118;BME280;66072;50.238;19.228;2024-01-11T10:57:47;99252.88;;;-0.81;54.17
77118;BME280;66072;50.238;19.228;2024-01-11T11:00:17;99240.86;;;-0.73;54.05
77118;BME280;66072;50.238;19.228;2024-01-11T11:02:46;99228.45;;;-0.72;53.63
77118;BME280;66072;50.238;19.228;2024-01-11T11:05:15;99220.34;;;-0.75;53.37
77118;BME280;66072;50.238;19.228;2024-01-11T11:07:43;99211.77;;;-0.76;54.37
77118;BME280;66072;50.238;19.228;2024-01-11T11:10:12;99222.55;;;-0.88;53.48
77118;BME280;66072;50.238;19.228;2024-01-11T11:12:40;99242.95;;;-0.96;54.08
77118;BME280;66072;50.238;19.228;2024-01-11T11:15:11;99237.27;;;-1.07;54.17
77118;BME280;66072;50.238;19.228;2024-01-11T11:17:43;99235.52;;;-1.13;54.88
77118;BME280;66072;50.238;19.228;2024-01-11T11:20:11;99230.98;;;-1.11;55.36
77118;BME280;66072;50.238;19.228;2024-01-11T11:22:40;99228.20;;;-1.06;55.16
77118;BME280;66072;50.238;19.228;2024-01-11T11:25:09;99226.42;;;-0.87;55.70
77118;BME280;66072;50.238;19.228;2024-01-11T11:27:37;99220.61;;;-0.66;55.60
77118;BME280;66072;50.238;19.228;2024-01-11T11:30:05;99208.23;;;-0.46;54.30
77118;BME280;66072;50.238;19.228;2024-01-11T11:32:35;99199.15;;;-0.26;54.28
77118;BME280;66072;50.238;19.228;2024-01-11T11:35:04;99194.80;;;-0.04;54.02
77118;BME280;66072;50.238;19.228;2024-01-11T11:37:32;99193.17;;;0.03;53.09
77118;BME280;66072;50.238;19.228;2024-01-11T11:40:00;99196.98;;;-0.05;52.65
77118;BME280;66072;50.238;19.228;2024-01-11T11:42:30;99202.81;;;-0.11;53.77
77118;BME280;66072;50.238;19.228;2024-01-11T11:44:58;99200.96;;;-0.13;54.05
77118;BME280;66072;50.238;19.228;2024-01-11T11:47:33;99191.84;;;-0.16;54.14
77118;BME280;66072;50.238;19.228;2024-01-11T11:50:06;99188.98;;;-0.18;54.37
77118;BME280;66072;50.238;19.228;2024-01-11T11:52:36;99177.00;;;-0.22;53.97
77118;BME280;66072;50.238;19.228;2024-01-11T11:55:05;99177.48;;;-0.25;54.07
77118;BME280;66072;50.238;19.228;2024-01-11T11:57:35;99169.63;;;-0.19;54.66
77118;BME280;66072;50.238;19.228;2024-01-11T12:00:03;99161.14;;;-0.09;54.83
77118;BME280;66072;50.238;19.228;2024-01-11T12:02:31;99164.67;;;-0.08;54.79
77118;BME280;66072;50.238;19.228;2024-01-11T12:04:59;99156.05;;;-0.14;54.47
77118;BME280;66072;50.238;19.228;2024-01-11T12:07:28;99153.92;;;-0.29;54.06
77118;BME280;66072;50.238;19.228;2024-01-11T12:09:56;99146.99;;;-0.33;55.06
77118;BME280;66072;50.238;19.228;2024-01-11T12:12:24;99146.66;;;-0.33;55.02
77118;BME280;66072;50.238;19.228;2024-01-11T12:14:53;99145.33;;;-0.31;54.90
77118;BME280;66072;50.238;19.228;2024-01-11T12:17:21;99135.11;;;-0.26;54.71
77118;BME280;66072;50.238;19.228;2024-01-11T12:19:51;99134.45;;;-0.26;55.39
77118;BME280;66072;50.238;19.228;2024-01-11T12:22:20;99133.41;;;-0.29;55.96
77118;BME280;66072;50.238;19.228;2024-01-11T12:24:48;99125.80;;;-0.36;55.79
77118;BME280;66072;50.238;19.228;2024-01-11T12:27:16;99127.83;;;-0.35;56.63
77118;BME280;66072;50.238;19.228;2024-01-11T12:29:44;99122.46;;;-0.32;56.55
77118;BME280;66072;50.238;19.228;2024-01-11T12:32:25;99116.27;;;-0.29;56.53
77118;BME280;66072;50.238;19.228;2024-01-11T12:34:53;99110.19;;;-0.33;56.14
77118;BME280;66072;50.238;19.228;2024-01-11T12:37:21;99108.63;;;-0.41;56.45
77118;BME280;66072;50.238;19.228;2024-01-11T12:39:49;99113.84;;;-0.40;57.45
77118;BME280;66072;50.238;19.228;2024-01-11T12:42:17;99112.48;;;-0.40;57.50
77118;BME280;66072;50.238;19.228;2024-01-11T12:44:44;99113.09;;;-0.48;57.03
77118;BME280;66072;50.238;19.228;2024-01-11T12:47:15;99113.73;;;-0.51;57.55
77118;BME280;66072;50.238;19.228;2024-01-11T12:49:43;99112.68;;;-0.58;57.38
77118;BME280;66072;50.238;19.228;2024-01-11T12:52:20;99109.11;;;-0.63;57.73